Weather at Kebar Airport

Public forecast

Using degrees Celsius for public forecast. Weather courtesy of forecast.io.

Closest aviation weather report (METAR) to Kebar Airport

Closest report is Frans Kaisiepo Airport, 184.7 nm (342.0 km) E.

2024/07/20 06:00 (retrieved 46 minutes ago)

WABB 200600Z VRB02KT 9000 -RA SCT015 OVC090 26/24 Q1010 NOSIG

Closest aviation forecast (TAF) to Kebar Airport

Closest forecast is Frans Kaisiepo Airport, 184.7 nm (342.0 km) E.

2024/07/20 06:12 (retrieved 34 minutes ago)

TAF WABB 200500Z 2006/2112 32006KT 8000 RA SCT015 BECMG 2008/2010 9999 NSW